TimeCET,TemperatureF,Dew PointF,Humidity,Sea Level PressureIn,VisibilityMPH,Wind Direction,Wind SpeedMPH,Gust SpeedMPH,PrecipitationIn,Events,Conditions,WindDirDegrees,DateUTC
12:20 AM,37.4,35.6,93,29.89,-9999.0,Variable,2.3,-,N/A,,Clear,0,2013-02-20 23:20:00
12:50 AM,39.2,37.4,93,29.89,-9999.0,SW,4.6,-,N/A,,Clear,220,2013-02-20 23:50:00
1:20 AM,39.2,37.4,93,29.89,-9999.0,SW,4.6,-,N/A,,Clear,220,2013-02-21 00:20:00
1:50 AM,37.4,35.6,93,29.89,-9999.0,WSW,4.6,-,N/A,,Clear,240,2013-02-21 00:50:00
2:20 AM,37.4,35.6,93,29.86,-9999.0,SW,4.6,-,N/A,,Clear,220,2013-02-21 01:20:00
2:50 AM,35.6,35.6,100,29.86,-9999.0,SSW,4.6,-,N/A,,Clear,210,2013-02-21 01:50:00
3:20 AM,41.0,37.4,87,29.86,-9999.0,South,6.9,-,N/A,,Clear,190,2013-02-21 02:20:00
3:50 AM,39.2,35.6,87,29.83,-9999.0,SSW,6.9,-,N/A,,Clear,210,2013-02-21 02:50:00
4:20 AM,37.4,35.6,93,29.83,-9999.0,SW,3.5,-,N/A,,Clear,230,2013-02-21 03:20:00
4:50 AM,37.4,35.6,93,29.83,-9999.0,SW,5.8,-,N/A,,Clear,220,2013-02-21 03:50:00
5:20 AM,39.2,37.4,93,29.80,-9999.0,SW,3.5,-,N/A,,Clear,220,2013-02-21 04:20:00
5:50 AM,39.2,37.4,93,29.80,-9999.0,SW,3.5,-,N/A,,Clear,230,2013-02-21 04:50:00
6:20 AM,39.2,35.6,87,29.80,-9999.0,SSW,5.8,-,N/A,,Clear,210,2013-02-21 05:20:00
6:50 AM,39.2,37.4,93,29.80,-9999.0,SSW,6.9,-,N/A,,Clear,210,2013-02-21 05:50:00
7:20 AM,39.2,37.4,93,29.80,-9999.0,SSW,5.8,-,N/A,,Clear,200,2013-02-21 06:20:00
7:50 AM,39.2,37.4,93,29.80,-9999.0,South,3.5,-,N/A,,Clear,190,2013-02-21 06:50:00
8:20 AM,41.0,39.2,93,29.80,-9999.0,SSW,3.5,-,N/A,,Clear,210,2013-02-21 07:20:00
8:50 AM,44.6,41.0,87,29.83,-9999.0,SSW,4.6,-,N/A,,Clear,200,2013-02-21 07:50:00
9:20 AM,48.2,41.0,76,29.80,-9999.0,South,3.5,-,N/A,,Clear,180,2013-02-21 08:20:00
9:50 AM,51.8,42.8,71,29.80,-9999.0,South,4.6,-,N/A,,Clear,180,2013-02-21 08:50:00
10:20 AM,51.8,42.8,71,29.80,-9999.0,SSW,9.2,-,N/A,,Clear,210,2013-02-21 09:20:00
10:50 AM,55.4,42.8,63,29.80,6.2,SW,17.3,-,N/A,,Partly Cloudy,230,2013-02-21 09:50:00
11:20 AM,55.4,42.8,63,29.80,6.2,SW,13.8,-,N/A,,Partly Cloudy,220,2013-02-21 10:20:00
11:50 AM,57.2,42.8,59,29.80,6.2,SSW,10.4,-,N/A,,Partly Cloudy,200,2013-02-21 10:50:00
12:20 PM,59.0,41.0,51,29.77,6.2,WSW,11.5,-,N/A,,Partly Cloudy,250,2013-02-21 11:20:00
12:50 PM,59.0,39.2,48,29.77,6.2,WSW,11.5,-,N/A,,Partly Cloudy,250,2013-02-21 11:50:00
1:20 PM,60.8,39.2,45,29.74,6.2,West,10.4,-,N/A,,Partly Cloudy,270,2013-02-21 12:20:00
1:50 PM,59.0,41.0,51,29.74,6.2,WSW,9.2,-,N/A,,Scattered Clouds,240,2013-02-21 12:50:00
2:20 PM,59.0,41.0,51,29.74,6.2,West,8.1,-,N/A,,Scattered Clouds,260,2013-02-21 13:20:00
2:50 PM,59.0,39.2,48,29.71,6.2,WSW,10.4,-,N/A,,Partly Cloudy,250,2013-02-21 13:50:00
3:20 PM,59.0,39.2,48,29.71,6.2,WSW,10.4,-,N/A,,Partly Cloudy,250,2013-02-21 14:20:00
3:50 PM,59.0,39.2,48,29.71,6.2,WSW,10.4,-,N/A,,Partly Cloudy,250,2013-02-21 14:50:00
4:20 PM,60.8,39.2,45,29.71,6.2,West,12.7,-,N/A,,Partly Cloudy,260,2013-02-21 15:20:00
4:50 PM,59.0,39.2,48,29.71,6.2,West,10.4,-,N/A,,Partly Cloudy,270,2013-02-21 15:50:00
5:20 PM,57.2,41.0,55,29.71,6.2,WSW,11.5,-,N/A,,Partly Cloudy,240,2013-02-21 16:20:00
5:50 PM,55.4,42.8,63,29.71,6.2,SW,8.1,-,N/A,,Partly Cloudy,220,2013-02-21 16:50:00
6:20 PM,53.6,42.8,67,29.71,6.2,SSW,8.1,-,N/A,,Partly Cloudy,210,2013-02-21 17:20:00
6:50 PM,51.8,42.8,71,29.74,6.2,SW,6.9,-,N/A,,Partly Cloudy,230,2013-02-21 17:50:00
7:20 PM,51.8,42.8,71,29.74,6.2,SSW,8.1,-,N/A,,Partly Cloudy,210,2013-02-21 18:20:00
7:50 PM,51.8,44.6,76,29.74,-9999.0,SW,10.4,-,N/A,,Clear,230,2013-02-21 18:50:00
8:20 PM,50.0,44.6,82,29.74,6.2,SSW,8.1,-,N/A,,Scattered Clouds,200,2013-02-21 19:20:00
8:50 PM,48.2,44.6,87,29.71,6.2,SSW,9.2,-,N/A,,Scattered Clouds,200,2013-02-21 19:50:00
9:20 PM,48.2,44.6,87,29.71,6.2,SSW,8.1,-,N/A,,Scattered Clouds,210,2013-02-21 20:20:00
9:50 PM,48.2,44.6,87,29.71,6.2,SSW,6.9,-,N/A,,Scattered Clouds,210,2013-02-21 20:50:00
10:20 PM,48.2,44.6,87,29.71,6.2,SW,10.4,-,N/A,,Scattered Clouds,230,2013-02-21 21:20:00
10:50 PM,48.2,44.6,87,29.68,6.2,WSW,11.5,-,N/A,,Scattered Clouds,240,2013-02-21 21:50:00
11:20 PM,48.2,44.6,87,29.68,6.2,WSW,8.1,-,N/A,,Scattered Clouds,250,2013-02-21 22:20:00
11:50 PM,46.4,42.8,87,29.68,6.2,SSW,4.6,-,N/A,,Scattered Clouds,210,2013-02-21 22:50:00